createdAt,value
2023-01-10T00:00:17.246Z,2.13
2023-01-10T00:01:18.848Z,2.80
2023-01-10T00:02:21.571Z,2.95
2023-01-10T00:03:24.098Z,2.80
2023-01-10T00:04:26.599Z,3.15
2023-01-10T00:05:29.186Z,3.00
2023-01-10T00:06:32.169Z,2.85
2023-01-10T00:07:34.622Z,3.28
2023-01-10T00:08:36.157Z,2.83
2023-01-10T00:09:38.635Z,3.25
2023-01-10T00:10:40.161Z,2.85
2023-01-10T00:12:00.292Z,2.88
2023-01-10T00:13:20.691Z,3.13
2023-01-10T00:14:23.203Z,3.35
2023-01-10T00:15:24.751Z,3.40
2023-01-10T00:16:27.222Z,2.97
2023-01-10T00:17:28.732Z,3.47
2023-01-10T00:18:31.218Z,2.85
2023-01-10T00:19:32.789Z,3.13
2023-01-10T00:20:35.340Z,3.30
2023-01-10T00:21:39.554Z,3.38
2023-01-10T00:22:42.037Z,3.53
2023-01-10T00:23:44.110Z,3.17
2023-01-10T00:24:46.563Z,3.40
2023-01-10T00:25:48.090Z,2.97
2023-01-10T00:26:52.137Z,3.20
2023-01-10T00:27:57.914Z,2.92
2023-01-10T00:29:00.404Z,3.65
2023-01-10T00:30:13.625Z,3.28
2023-01-10T00:31:16.755Z,3.65
2023-01-10T00:32:19.864Z,3.55
2023-01-10T00:33:21.458Z,3.67
2023-01-10T00:34:25.242Z,3.70
2023-01-10T00:35:26.735Z,3.53
2023-01-10T00:36:29.188Z,3.47
2023-01-10T00:37:32.152Z,3.75
2023-01-10T00:38:36.952Z,3.92
2023-01-10T00:39:38.592Z,3.70
2023-01-10T00:40:41.356Z,3.83
2023-01-10T00:42:01.836Z,3.70
2023-01-10T00:43:21.806Z,3.67
2023-01-10T00:44:23.382Z,3.85
2023-01-10T00:45:27.051Z,3.90
2023-01-10T00:46:28.811Z,3.90
2023-01-10T00:47:31.221Z,4.10
2023-01-10T00:48:32.804Z,4.03
2023-01-10T00:49:35.280Z,4.18
2023-01-10T00:50:36.846Z,3.63
2023-01-10T00:51:39.295Z,4.75
2023-01-10T00:52:42.139Z,3.75
2023-01-10T00:53:44.625Z,4.07
2023-01-10T00:54:46.158Z,3.88
2023-01-10T00:55:48.797Z,4.28
2023-01-10T00:56:50.295Z,3.90
2023-01-10T00:57:53.137Z,3.72
2023-01-10T00:58:54.597Z,4.35
2023-01-10T00:59:57.087Z,4.22
2023-01-10T01:00:58.626Z,3.80
2023-01-10T01:02:01.254Z,4.00
2023-01-10T01:03:02.864Z,3.70
2023-01-10T01:04:05.553Z,3.85
2023-01-10T01:05:07.798Z,4.50
2023-01-10T01:06:10.265Z,4.03
2023-01-10T01:07:11.785Z,4.10
2023-01-10T01:08:17.040Z,3.83
2023-01-10T01:09:18.573Z,3.70
2023-01-10T01:10:30.108Z,3.90
2023-01-10T01:11:31.610Z,3.90
2023-01-10T01:12:34.046Z,3.92
2023-01-10T01:13:36.285Z,3.70
2023-01-10T01:14:38.764Z,3.90
2023-01-10T01:15:40.597Z,3.92
2023-01-10T01:16:43.091Z,3.53
2023-01-10T01:17:44.569Z,3.67
2023-01-10T01:18:47.071Z,3.78
2023-01-10T01:19:48.583Z,3.50
2023-01-10T01:20:55.059Z,4.25
2023-01-10T01:21:56.670Z,4.03
2023-01-10T01:23:00.758Z,4.10
2023-01-10T01:24:03.863Z,4.05
2023-01-10T01:25:07.059Z,4.30
2023-01-10T01:26:08.627Z,3.70
2023-01-10T01:27:11.078Z,3.90
2023-01-10T01:28:12.934Z,4.20
2023-01-10T01:29:16.756Z,4.18
2023-01-10T01:30:19.459Z,4.20
2023-01-10T01:31:22.738Z,4.40
2023-01-10T01:32:24.673Z,4.00
2023-01-10T01:33:27.385Z,3.75
2023-01-10T01:34:28.967Z,4.07
2023-01-10T01:35:33.329Z,4.57
2023-01-10T01:36:34.990Z,4.13
2023-01-10T01:37:37.449Z,4.00
2023-01-10T01:38:40.482Z,4.65
2023-01-10T01:39:44.462Z,3.97
2023-01-10T01:40:45.983Z,4.35
2023-01-10T01:42:00.458Z,3.90
2023-01-10T01:43:02.260Z,3.97
2023-01-10T01:44:06.598Z,4.22
2023-01-10T01:45:39.058Z,4.50
2023-01-10T01:46:42.223Z,4.13
2023-01-10T01:47:49.244Z,4.40
2023-01-10T01:48:51.726Z,5.50
2023-01-10T01:49:54.279Z,4.97
2023-01-10T01:51:05.396Z,4.32
2023-01-10T01:52:11.011Z,4.63
2023-01-10T01:53:18.819Z,4.65
2023-01-10T01:54:21.733Z,4.63
2023-01-10T01:55:26.474Z,4.18
2023-01-10T01:56:34.119Z,4.57
2023-01-10T01:57:36.539Z,4.22
2023-01-10T01:58:45.051Z,4.43
2023-01-10T01:59:49.818Z,4.40
2023-01-10T02:00:52.434Z,5.00
2023-01-10T02:01:58.478Z,4.68
2023-01-10T02:03:03.515Z,5.25
2023-01-10T02:04:12.018Z,4.88
2023-01-10T02:05:16.238Z,4.65
2023-01-10T02:06:20.261Z,4.85
2023-01-10T02:07:24.150Z,4.45
2023-01-10T02:08:26.640Z,4.53
2023-01-10T02:09:33.230Z,5.40
2023-01-10T02:10:43.943Z,5.07
2023-01-10T02:11:47.088Z,3.35
2023-01-10T02:12:50.850Z,4.38
2023-01-10T02:13:54.303Z,5.43
2023-01-10T02:14:56.126Z,4.70
2023-01-10T02:15:58.672Z,5.05
2023-01-10T02:17:00.205Z,4.75
2023-01-10T02:18:04.362Z,4.70
2023-01-10T02:19:14.368Z,5.30
2023-01-10T02:20:18.911Z,5.00
2023-01-10T02:22:06.282Z,5.07
2023-01-10T02:23:41.179Z,4.90
2023-01-10T02:25:19.848Z,4.82
2023-01-10T02:26:42.788Z,4.60
2023-01-10T02:28:04.906Z,5.20
2023-01-10T02:29:48.773Z,5.25
2023-01-10T02:31:17.729Z,5.03
2023-01-10T02:32:42.154Z,5.20
2023-01-10T02:33:58.744Z,5.07
2023-01-10T02:35:10.356Z,4.63
2023-01-10T02:36:26.665Z,4.93
2023-01-10T02:37:40.838Z,5.53
2023-01-10T02:38:55.806Z,4.95
2023-01-10T02:40:03.281Z,5.03
2023-01-10T02:41:15.600Z,5.38
2023-01-10T02:42:24.106Z,5.10
2023-01-10T02:43:31.889Z,5.20
2023-01-10T02:44:39.720Z,5.13
2023-01-10T02:45:48.840Z,4.95
2023-01-10T02:46:52.496Z,4.88
2023-01-10T02:47:56.236Z,4.95
2023-01-10T02:48:58.724Z,5.00
2023-01-10T02:50:36.938Z,5.63
2023-01-10T02:51:38.480Z,5.00
2023-01-10T02:52:40.940Z,4.47
2023-01-10T02:53:46.042Z,5.03
2023-01-10T02:54:50.325Z,4.95
2023-01-10T02:56:12.845Z,4.70
2023-01-10T02:57:36.068Z,4.63
2023-01-10T02:58:54.076Z,4.97
2023-01-10T03:00:19.095Z,4.57
2023-01-10T03:01:31.378Z,4.20
2023-01-10T03:02:45.985Z,4.93
2023-01-10T03:03:59.994Z,4.60
2023-01-10T03:05:11.125Z,4.85
2023-01-10T03:06:24.395Z,4.60
2023-01-10T03:07:33.887Z,4.25
2023-01-10T03:08:40.612Z,4.55
2023-01-10T03:09:52.412Z,4.43
2023-01-10T03:10:59.644Z,4.90
2023-01-10T03:12:09.627Z,4.95
2023-01-10T03:13:18.024Z,4.30
2023-01-10T03:14:24.518Z,4.60
2023-01-10T03:15:30.742Z,4.88
2023-01-10T03:16:36.882Z,4.70
2023-01-10T03:17:41.659Z,4.35
2023-01-10T03:18:51.866Z,4.75
2023-01-10T03:19:59.429Z,4.57
2023-01-10T03:21:05.005Z,4.40
2023-01-10T03:22:10.876Z,5.00
2023-01-10T03:23:15.231Z,4.60
2023-01-10T03:24:21.456Z,4.35
2023-01-10T03:25:29.239Z,4.53
2023-01-10T03:26:37.528Z,4.60
2023-01-10T03:27:49.266Z,4.30
2023-01-10T03:28:56.062Z,5.25
2023-01-10T03:30:04.105Z,4.80
2023-01-10T03:31:11.223Z,5.03
2023-01-10T03:32:18.239Z,4.78
2023-01-10T03:33:24.770Z,5.18
2023-01-10T03:34:28.926Z,4.38
2023-01-10T03:35:43.017Z,4.43
2023-01-10T03:36:53.423Z,4.85
2023-01-10T03:38:01.399Z,3.53
2023-01-10T03:39:11.133Z,4.53
2023-01-10T03:40:19.289Z,4.00
2023-01-10T03:41:30.809Z,4.13
2023-01-10T03:42:56.528Z,4.13
2023-01-10T03:44:25.648Z,3.92
2023-01-10T03:45:35.626Z,4.15
2023-01-10T03:46:41.889Z,3.05
2023-01-10T03:47:50.502Z,4.32
2023-01-10T03:48:53.946Z,3.70
2023-01-10T03:50:03.410Z,4.05
2023-01-10T03:51:07.522Z,4.00
2023-01-10T03:52:13.181Z,4.40
2023-01-10T03:53:15.744Z,3.97
2023-01-10T03:54:18.478Z,3.72
2023-01-10T03:55:23.149Z,4.00
2023-01-10T03:56:25.601Z,3.75
2023-01-10T03:57:27.132Z,3.85
2023-01-10T03:58:30.231Z,4.28
2023-01-10T03:59:32.196Z,3.92
2023-01-10T04:00:34.686Z,4.05
2023-01-10T04:01:36.280Z,3.55
2023-01-10T04:02:39.055Z,3.80
2023-01-10T04:03:40.633Z,3.55
2023-01-10T04:04:43.229Z,4.00
2023-01-10T04:05:46.087Z,3.53
2023-01-10T04:06:48.601Z,3.97
2023-01-10T04:07:50.107Z,3.55
2023-01-10T04:08:52.596Z,3.67
2023-01-10T04:09:54.265Z,3.17
2023-01-10T04:10:56.764Z,3.35
2023-01-10T04:11:58.260Z,3.40
2023-01-10T04:13:01.264Z,3.40
2023-01-10T04:14:02.797Z,3.33
2023-01-10T04:15:06.131Z,3.70
2023-01-10T04:16:08.435Z,3.00
2023-01-10T04:17:10.922Z,3.50
2023-01-10T04:18:13.063Z,3.30
2023-01-10T04:19:15.563Z,3.17
2023-01-10T04:20:17.284Z,3.45
2023-01-10T04:21:21.238Z,3.40
2023-01-10T04:22:22.825Z,3.38
2023-01-10T04:23:25.249Z,3.40
2023-01-10T04:24:26.728Z,3.22
2023-01-10T04:25:29.152Z,3.90
2023-01-10T04:26:30.694Z,2.90
2023-01-10T04:27:33.147Z,3.40
2023-01-10T04:28:34.699Z,3.10
2023-01-10T04:29:37.181Z,3.38
2023-01-10T04:30:38.709Z,3.90
2023-01-10T04:31:41.697Z,3.65
2023-01-10T04:32:43.249Z,3.33
2023-01-10T04:33:45.792Z,3.40
2023-01-10T04:34:47.274Z,3.25
2023-01-10T04:35:49.913Z,3.08
2023-01-10T04:36:53.682Z,3.45
2023-01-10T04:37:55.228Z,3.25
2023-01-10T04:38:57.738Z,3.20
2023-01-10T04:39:59.299Z,3.13
2023-01-10T04:41:01.748Z,3.60
2023-01-10T04:42:03.607Z,3.28
2023-01-10T04:43:06.033Z,3.33
2023-01-10T04:44:07.960Z,3.58
2023-01-10T04:45:13.534Z,3.28
2023-01-10T04:46:15.216Z,3.55
2023-01-10T04:47:17.807Z,3.08
2023-01-10T04:48:19.575Z,3.10
2023-01-10T04:49:22.179Z,3.53
2023-01-10T04:50:23.883Z,3.45
2023-01-10T04:51:26.624Z,3.60
2023-01-10T04:52:29.412Z,3.45
2023-01-10T04:53:31.858Z,3.22
2023-01-10T04:54:33.377Z,3.63
2023-01-10T04:55:35.814Z,3.42
2023-01-10T04:56:37.401Z,3.33
2023-01-10T04:57:39.899Z,3.30
2023-01-10T04:58:41.397Z,3.45
2023-01-10T04:59:43.842Z,3.22
2023-01-10T05:00:45.382Z,3.30
2023-01-10T05:01:47.972Z,3.47
2023-01-10T05:02:49.677Z,3.10
2023-01-10T05:03:53.224Z,3.25
2023-01-10T05:04:55.680Z,2.90
2023-01-10T05:05:58.301Z,3.30
2023-01-10T05:07:00.716Z,3.15
2023-01-10T05:08:03.919Z,3.30
2023-01-10T05:09:06.556Z,3.10
2023-01-10T05:10:09.554Z,3.33
2023-01-10T05:11:12.460Z,3.70
2023-01-10T05:12:13.926Z,3.00
2023-01-10T05:13:16.326Z,3.53
2023-01-10T05:14:18.925Z,3.28
2023-01-10T05:15:21.151Z,3.20
2023-01-10T05:16:25.307Z,2.95
2023-01-10T05:17:27.213Z,3.00
2023-01-10T05:18:30.746Z,3.13
2023-01-10T05:19:32.348Z,3.20
2023-01-10T05:20:34.934Z,3.33
2023-01-10T05:21:36.405Z,2.97
2023-01-10T05:22:38.826Z,3.42
2023-01-10T05:23:41.740Z,3.33
2023-01-10T05:24:44.161Z,3.15
2023-01-10T05:25:45.820Z,3.28
2023-01-10T05:26:48.248Z,3.03
2023-01-10T05:27:49.695Z,3.10
2023-01-10T05:28:52.566Z,3.13
2023-01-10T05:29:54.132Z,3.35
2023-01-10T05:30:56.567Z,3.40
2023-01-10T05:31:58.130Z,3.05
2023-01-10T05:33:00.592Z,3.00
2023-01-10T05:34:02.059Z,3.22
2023-01-10T05:35:04.994Z,2.50
2023-01-10T05:36:07.798Z,2.90
2023-01-10T05:37:10.240Z,3.38
2023-01-10T05:38:11.710Z,2.75
2023-01-10T05:39:15.559Z,2.50
2023-01-10T05:40:17.389Z,3.10
2023-01-10T05:41:19.926Z,3.00
2023-01-10T05:42:21.405Z,3.20
2023-01-10T05:43:23.878Z,3.08
2023-01-10T05:44:25.324Z,2.88
2023-01-10T05:45:27.725Z,2.50
2023-01-10T05:46:29.239Z,2.60
2023-01-10T05:47:31.699Z,2.72
2023-01-10T05:48:33.220Z,2.63
2023-01-10T05:49:35.627Z,2.50
2023-01-10T05:50:37.145Z,2.50
2023-01-10T05:51:39.572Z,2.60
2023-01-10T05:52:41.138Z,2.90
2023-01-10T05:53:43.591Z,2.72
2023-01-10T05:54:46.401Z,3.00
2023-01-10T05:55:54.087Z,2.70
2023-01-10T05:56:56.556Z,2.33
2023-01-10T05:57:58.061Z,2.63
2023-01-10T05:59:17.033Z,2.53
2023-01-10T06:00:25.103Z,2.70
2023-01-10T06:01:26.731Z,2.70
2023-01-10T06:02:29.292Z,2.13
2023-01-10T06:03:33.369Z,2.67
2023-01-10T06:04:38.461Z,2.22
2023-01-10T06:05:39.949Z,2.67
2023-01-10T06:06:42.412Z,2.03
2023-01-10T06:07:45.248Z,2.70
2023-01-10T06:08:47.672Z,2.67
2023-01-10T06:09:51.356Z,2.40
2023-01-10T06:10:53.986Z,2.22
2023-01-10T06:11:55.834Z,2.08
2023-01-10T06:12:58.244Z,2.53
2023-01-10T06:13:59.764Z,2.50
2023-01-10T06:15:03.280Z,2.20
2023-01-10T06:16:05.566Z,2.45
2023-01-10T06:17:10.176Z,2.35
2023-01-10T06:18:14.721Z,2.50
2023-01-10T06:19:17.181Z,2.35
2023-01-10T06:20:19.850Z,2.50
2023-01-10T06:21:21.465Z,2.25
2023-01-10T06:22:23.879Z,2.30
2023-01-10T06:23:25.546Z,2.08
2023-01-10T06:24:28.176Z,2.53
2023-01-10T06:25:31.044Z,2.50
2023-01-10T06:26:33.700Z,2.28
2023-01-10T06:27:35.276Z,2.15
2023-01-10T06:28:37.760Z,2.42
2023-01-10T06:29:39.220Z,2.55
2023-01-10T06:30:43.255Z,2.90
2023-01-10T06:31:44.832Z,2.47
2023-01-10T06:32:47.308Z,2.00
2023-01-10T06:33:50.202Z,2.35
2023-01-10T06:34:52.633Z,2.17
2023-01-10T06:35:54.138Z,2.47
2023-01-10T06:36:56.567Z,2.55
2023-01-10T06:37:59.407Z,2.70
2023-01-10T06:39:01.946Z,2.03
2023-01-10T06:40:04.020Z,2.40
2023-01-10T06:41:13.746Z,2.50
2023-01-10T06:42:15.246Z,2.05
2023-01-10T06:43:17.702Z,2.47
2023-01-10T06:44:19.202Z,2.20
2023-01-10T06:45:22.086Z,2.08
2023-01-10T06:46:24.607Z,2.20
2023-01-10T06:47:26.105Z,1.88
2023-01-10T06:48:28.566Z,1.80
2023-01-10T06:49:30.409Z,1.88
2023-01-10T06:50:32.867Z,2.15
2023-01-10T06:51:34.494Z,1.98
2023-01-10T06:52:37.952Z,1.70
2023-01-10T06:53:39.621Z,1.73
2023-01-10T06:54:42.113Z,1.80
2023-01-10T06:55:43.584Z,2.10
2023-01-10T06:56:48.403Z,1.80
2023-01-10T06:57:55.414Z,1.70
2023-01-10T06:58:57.832Z,1.67
2023-01-10T06:59:59.313Z,1.85
2023-01-10T07:01:01.889Z,2.00
2023-01-10T07:02:04.531Z,1.60
2023-01-10T07:03:06.126Z,1.60
2023-01-10T07:04:08.657Z,2.10
2023-01-10T07:05:11.587Z,1.65
2023-01-10T07:06:14.680Z,1.90
2023-01-10T07:07:16.219Z,1.60
2023-01-10T07:08:18.661Z,1.85
2023-01-10T07:09:21.057Z,1.95
2023-01-10T07:10:22.598Z,1.77
2023-01-10T07:11:25.107Z,1.63
2023-01-10T07:12:28.837Z,1.50
2023-01-10T07:13:31.242Z,2.00
2023-01-10T07:14:32.924Z,1.85
2023-01-10T07:15:35.346Z,1.75
2023-01-10T07:16:37.945Z,1.80
2023-01-10T07:17:39.669Z,1.40
2023-01-10T07:18:43.744Z,1.65
2023-01-10T07:19:45.265Z,1.60
2023-01-10T07:20:47.713Z,1.77
2023-01-10T07:21:50.175Z,1.60
2023-01-10T07:22:56.001Z,1.55
2023-01-10T07:23:58.433Z,1.60
2023-01-10T07:25:00.047Z,1.95
2023-01-10T07:26:04.486Z,1.38
2023-01-10T07:27:06.907Z,1.90
2023-01-10T07:28:09.766Z,1.92
2023-01-10T07:29:12.243Z,1.90
2023-01-10T07:30:15.202Z,2.20
2023-01-10T07:31:18.825Z,1.73
2023-01-10T07:32:21.316Z,1.80
2023-01-10T07:33:25.538Z,2.33
2023-01-10T07:34:28.022Z,2.38
2023-01-10T07:35:30.147Z,2.70
2023-01-10T07:36:39.184Z,2.00
2023-01-10T07:37:41.248Z,2.13
2023-01-10T07:38:43.707Z,2.20
2023-01-10T07:39:46.155Z,2.38
2023-01-10T07:40:48.857Z,2.90
2023-01-10T07:41:52.761Z,2.30
2023-01-10T07:42:57.566Z,2.35
2023-01-10T07:44:00.367Z,2.70
2023-01-10T07:45:02.791Z,2.50
2023-01-10T07:46:08.209Z,3.03
2023-01-10T07:47:10.656Z,2.38
2023-01-10T07:48:12.233Z,2.80
2023-01-10T07:49:15.040Z,2.83
2023-01-10T07:50:18.085Z,2.60
2023-01-10T07:51:23.999Z,2.58
2023-01-10T07:52:26.479Z,2.60
2023-01-10T07:53:30.356Z,2.95
2023-01-10T07:54:32.050Z,2.92
2023-01-10T07:55:36.210Z,3.08
2023-01-10T07:56:39.340Z,2.80
2023-01-10T07:57:41.792Z,2.90
2023-01-10T07:58:46.234Z,2.78
2023-01-10T07:59:49.080Z,2.78
2023-01-10T08:00:51.556Z,2.85
2023-01-10T08:01:54.109Z,2.85
2023-01-10T08:02:57.318Z,2.40
2023-01-10T08:03:59.912Z,2.90
2023-01-10T08:05:01.549Z,2.83
2023-01-10T08:06:06.021Z,2.60
2023-01-10T08:07:08.499Z,2.53
2023-01-10T08:08:12.553Z,2.83
2023-01-10T08:09:15.242Z,2.80
2023-01-10T08:10:19.089Z,2.58
2023-01-10T08:11:21.685Z,2.65
2023-01-10T08:12:24.638Z,2.92
2023-01-10T08:13:29.398Z,3.15
2023-01-10T08:14:31.851Z,2.90
2023-01-10T08:15:34.809Z,2.53
2023-01-10T08:16:37.237Z,3.17
2023-01-10T08:17:38.846Z,2.90
2023-01-10T08:18:43.047Z,2.85
2023-01-10T08:19:44.807Z,2.50
2023-01-10T08:20:48.421Z,2.55
2023-01-10T08:21:49.917Z,2.50
2023-01-10T08:22:52.415Z,2.75
2023-01-10T08:23:55.165Z,2.47
2023-01-10T08:24:56.682Z,2.95
2023-01-10T08:25:59.313Z,2.33
2023-01-10T08:27:02.223Z,2.70
2023-01-10T08:28:03.867Z,2.60
2023-01-10T08:29:06.441Z,2.83
2023-01-10T08:30:10.145Z,2.47
2023-01-10T08:31:14.012Z,2.50
2023-01-10T08:32:16.544Z,2.33
2023-01-10T08:33:22.974Z,2.78
2023-01-10T08:34:24.573Z,2.30
2023-01-10T08:35:27.138Z,2.28
2023-01-10T08:36:35.710Z,2.45
2023-01-10T08:37:38.195Z,2.30
2023-01-10T08:38:40.626Z,2.45
2023-01-10T08:39:43.025Z,2.70
2023-01-10T08:40:45.499Z,2.20
2023-01-10T08:41:49.263Z,2.45
2023-01-10T08:42:58.564Z,2.80
2023-01-10T08:44:01.295Z,2.40
2023-01-10T08:45:05.481Z,2.42
2023-01-10T08:46:07.566Z,2.78
2023-01-10T08:47:14.461Z,2.53
2023-01-10T08:48:16.897Z,2.40
2023-01-10T08:49:19.453Z,2.40
2023-01-10T08:50:22.024Z,2.38
2023-01-10T08:51:24.472Z,2.00
2023-01-10T08:52:25.953Z,2.42
2023-01-10T08:53:31.841Z,2.10
2023-01-10T08:54:34.490Z,2.35
2023-01-10T08:55:39.215Z,2.55
2023-01-10T08:56:41.990Z,1.98
2023-01-10T08:57:44.759Z,2.28
2023-01-10T08:58:47.237Z,2.42
2023-01-10T08:59:49.729Z,2.47
2023-01-10T09:00:52.282Z,2.00
2023-01-10T09:01:54.821Z,2.17
2023-01-10T09:02:58.794Z,2.20
2023-01-10T09:04:01.250Z,2.15
2023-01-10T09:05:02.741Z,2.58
2023-01-10T09:06:05.481Z,2.10
2023-01-10T09:07:07.980Z,2.58
2023-01-10T09:08:09.939Z,2.33
2023-01-10T09:09:12.371Z,2.05
2023-01-10T09:10:14.945Z,2.10
2023-01-10T09:11:16.503Z,2.03
2023-01-10T09:12:36.566Z,2.30
2023-01-10T09:13:40.133Z,2.10
2023-01-10T09:14:41.622Z,2.30
2023-01-10T09:15:44.432Z,1.83
2023-01-10T09:16:46.276Z,1.80
2023-01-10T09:17:49.741Z,2.03
2023-01-10T09:18:54.410Z,2.28
2023-01-10T09:19:56.289Z,2.25
2023-01-10T09:20:58.738Z,2.25
2023-01-10T09:22:01.190Z,2.15
2023-01-10T09:23:12.403Z,2.65
2023-01-10T09:24:14.022Z,1.90
2023-01-10T09:25:16.628Z,2.17
2023-01-10T09:26:19.049Z,2.90
2023-01-10T09:27:21.744Z,2.33
2023-01-10T09:28:24.887Z,2.35
2023-01-10T09:29:27.639Z,2.42
2023-01-10T09:30:31.474Z,2.50
2023-01-10T09:31:34.894Z,2.33
2023-01-10T09:32:37.404Z,2.78
2023-01-10T09:33:46.754Z,2.10
2023-01-10T09:34:51.107Z,2.58
2023-01-10T09:35:53.551Z,2.03
2023-01-10T09:36:55.187Z,2.00
2023-01-10T09:37:59.063Z,2.22
2023-01-10T09:39:01.557Z,2.08
2023-01-10T09:40:03.757Z,2.10
2023-01-10T09:41:21.644Z,1.98
2023-01-10T09:42:35.833Z,2.63
2023-01-10T09:43:48.766Z,2.92
2023-01-10T09:45:01.145Z,2.20
2023-01-10T09:46:09.542Z,2.00
2023-01-10T09:47:22.847Z,2.17
2023-01-10T09:48:32.420Z,2.25
2023-01-10T09:49:49.058Z,2.58
2023-01-10T09:51:10.060Z,2.35
2023-01-10T09:53:24.016Z,2.08
2023-01-10T09:54:29.983Z,2.28
2023-01-10T09:55:33.761Z,1.80
2023-01-10T09:56:37.220Z,2.45
2023-01-10T09:57:39.672Z,2.25
2023-01-10T09:58:44.735Z,2.38
2023-01-10T09:59:51.157Z,2.67
2023-01-10T10:00:57.619Z,2.60
2023-01-10T10:02:08.196Z,2.60
2023-01-10T10:03:20.452Z,1.58
2023-01-10T10:04:28.298Z,2.15
2023-01-10T10:05:30.230Z,2.30
2023-01-10T10:06:34.530Z,2.22
2023-01-10T10:07:36.454Z,2.50
2023-01-10T10:08:39.893Z,2.42
2023-01-10T10:09:44.244Z,2.55
2023-01-10T10:10:55.438Z,1.95
2023-01-10T10:12:18.493Z,2.20
2023-01-10T10:13:28.150Z,2.40
2023-01-10T10:14:45.043Z,2.25
2023-01-10T10:15:54.447Z,2.38
2023-01-10T10:17:13.568Z,2.03
2023-01-10T10:18:28.560Z,2.22
2023-01-10T10:19:39.800Z,2.47
2023-01-10T10:20:52.441Z,2.00
2023-01-10T10:22:06.288Z,2.28
2023-01-10T10:23:29.248Z,2.10
2023-01-10T10:24:50.448Z,2.20
2023-01-10T10:26:02.559Z,2.08
2023-01-10T10:27:17.227Z,2.13
2023-01-10T10:28:59.955Z,2.20
2023-01-10T10:30:18.968Z,1.88
2023-01-10T10:31:33.016Z,2.58
2023-01-10T10:32:51.604Z,2.38
2023-01-10T10:34:03.438Z,2.13
2023-01-10T10:35:14.005Z,1.80
2023-01-10T10:36:23.846Z,1.35
2023-01-10T10:37:33.385Z,2.15
2023-01-10T10:38:38.954Z,1.58
2023-01-10T10:39:48.310Z,1.70
2023-01-10T10:40:52.874Z,2.42
2023-01-10T10:41:56.229Z,2.00
2023-01-10T10:43:02.656Z,1.88
2023-01-10T10:44:18.450Z,2.20
2023-01-10T10:45:28.912Z,2.60
2023-01-10T10:46:32.096Z,2.88
2023-01-10T10:47:37.014Z,1.98
2023-01-10T10:48:43.479Z,1.75
2023-01-10T10:49:51.324Z,1.90
2023-01-10T10:51:04.312Z,1.98
2023-01-10T10:52:16.379Z,2.15
2023-01-10T10:53:20.208Z,2.20
2023-01-10T10:54:23.192Z,2.10
2023-01-10T10:55:29.787Z,1.85
2023-01-10T10:56:32.258Z,1.88
2023-01-10T10:57:38.775Z,2.00
2023-01-10T10:58:49.229Z,2.17
2023-01-10T10:59:51.970Z,1.83
2023-01-10T11:00:54.609Z,2.00
2023-01-10T11:01:56.310Z,2.17
2023-01-10T11:03:04.263Z,2.58
2023-01-10T11:04:11.155Z,1.85
2023-01-10T11:05:18.126Z,2.08
2023-01-10T11:06:21.345Z,2.17
2023-01-10T11:07:24.652Z,2.20
2023-01-10T11:08:30.896Z,2.05
2023-01-10T11:09:34.914Z,1.70
2023-01-10T11:10:38.306Z,1.98
2023-01-10T11:11:45.007Z,2.00
2023-01-10T11:12:51.041Z,2.40
2023-01-10T11:13:55.914Z,1.80
2023-01-10T11:14:58.951Z,2.35
2023-01-10T11:16:01.839Z,1.92
2023-01-10T11:17:20.455Z,1.60
2023-01-10T11:18:25.589Z,2.10
2023-01-10T11:19:30.039Z,2.25
2023-01-10T11:20:31.882Z,2.47
2023-01-10T11:21:34.834Z,1.88
2023-01-10T11:22:46.619Z,1.63
2023-01-10T11:23:54.463Z,2.08
2023-01-10T11:25:00.653Z,2.55
2023-01-10T11:26:02.723Z,2.10
2023-01-10T11:27:16.421Z,2.00
2023-01-10T11:28:23.453Z,2.42
2023-01-10T11:29:28.334Z,1.92
2023-01-10T11:30:33.440Z,2.22
2023-01-10T11:31:36.488Z,1.90
2023-01-10T11:32:41.598Z,2.35
2023-01-10T11:33:43.256Z,2.08
2023-01-10T11:34:53.903Z,2.03
2023-01-10T11:35:59.206Z,2.10
2023-01-10T11:37:03.741Z,2.13
2023-01-10T11:38:21.925Z,1.92
2023-01-10T11:39:27.813Z,2.17
2023-01-10T11:40:31.594Z,2.40
2023-01-10T11:41:36.063Z,1.95
2023-01-10T11:42:38.626Z,2.13
2023-01-10T11:43:42.063Z,1.85
2023-01-10T11:44:43.661Z,2.08
2023-01-10T11:45:46.209Z,2.17
2023-01-10T11:46:50.302Z,2.30
2023-01-10T11:47:55.072Z,2.40
2023-01-10T11:49:06.672Z,2.13
2023-01-10T11:50:10.429Z,2.40
2023-01-10T11:51:23.575Z,2.20
2023-01-10T11:52:29.596Z,2.60
2023-01-10T11:53:38.933Z,2.00
2023-01-10T11:54:43.319Z,2.22
2023-01-10T11:55:48.307Z,3.00
2023-01-10T11:56:57.424Z,2.72
2023-01-10T11:58:04.617Z,2.80
2023-01-10T11:59:13.490Z,3.55
2023-01-10T12:00:16.723Z,3.10
2023-01-10T12:01:28.105Z,2.83
2023-01-10T12:02:34.616Z,2.80
2023-01-10T12:03:38.335Z,2.42
2023-01-10T12:04:44.616Z,2.30
2023-01-10T12:05:51.840Z,3.20
2023-01-10T12:06:58.438Z,2.40
2023-01-10T12:08:06.437Z,2.17
2023-01-10T12:09:40.564Z,2.95
2023-01-10T12:10:42.236Z,2.85
2023-01-10T12:11:46.271Z,2.47
2023-01-10T12:12:57.066Z,2.90
2023-01-10T12:15:23.905Z,3.47
2023-01-10T12:16:28.266Z,2.92
2023-01-10T12:17:31.542Z,2.90
2023-01-10T12:18:34.048Z,3.00
2023-01-10T12:19:36.668Z,3.08
2023-01-10T12:20:48.947Z,2.67
2023-01-10T12:21:52.073Z,3.20
2023-01-10T12:22:58.637Z,2.80
2023-01-10T12:24:05.944Z,2.72
2023-01-10T12:25:19.273Z,3.42
2023-01-10T12:26:22.574Z,3.13
2023-01-10T12:27:27.413Z,2.75
2023-01-10T12:28:30.470Z,2.80
2023-01-10T12:29:37.660Z,2.75
2023-01-10T12:30:43.515Z,2.53
2023-01-10T12:31:45.577Z,3.15
2023-01-10T12:32:52.770Z,2.80
2023-01-10T12:34:01.449Z,3.50
2023-01-10T12:35:08.376Z,2.80
2023-01-10T12:36:17.077Z,2.80
2023-01-10T12:37:28.232Z,2.78
2023-01-10T12:38:52.485Z,3.10
2023-01-10T12:40:01.800Z,3.60
2023-01-10T12:41:05.840Z,2.88
2023-01-10T12:42:37.641Z,3.17
2023-01-10T12:44:01.284Z,2.38
2023-01-10T12:45:09.877Z,2.60
2023-01-10T12:46:36.019Z,2.65
2023-01-10T12:47:55.401Z,2.67
2023-01-10T12:49:02.251Z,2.67
2023-01-10T12:50:13.418Z,2.97
2023-01-10T12:51:22.105Z,2.45
2023-01-10T12:52:34.835Z,2.53
2023-01-10T12:53:40.832Z,2.55
2023-01-10T12:54:47.250Z,2.83
2023-01-10T12:55:52.721Z,2.67
2023-01-10T12:56:59.367Z,2.72
2023-01-10T12:58:06.133Z,2.80
2023-01-10T12:59:23.721Z,2.90
2023-01-10T13:00:47.897Z,2.42
2023-01-10T13:01:54.140Z,3.00
2023-01-10T13:02:59.914Z,2.60
2023-01-10T13:04:07.142Z,2.45
2023-01-10T13:05:17.904Z,1.98
2023-01-10T13:07:32.016Z,2.60
2023-01-10T13:08:38.625Z,2.67
2023-01-10T13:09:42.638Z,2.70
2023-01-10T13:10:47.139Z,2.35
2023-01-10T13:11:55.415Z,2.88
2023-01-10T13:13:07.143Z,2.88
2023-01-10T13:14:15.568Z,2.88
2023-01-10T13:15:22.046Z,2.90
2023-01-10T13:16:33.023Z,2.40
2023-01-10T13:17:43.057Z,2.70
2023-01-10T13:19:01.732Z,3.30
2023-01-10T13:20:28.148Z,2.22
2023-01-10T13:21:32.114Z,2.15
2023-01-10T13:22:35.794Z,2.80
2023-01-10T13:23:46.627Z,3.15
2023-01-10T13:26:05.749Z,3.05
2023-01-10T13:27:21.310Z,3.38
2023-01-10T13:28:27.183Z,2.72
2023-01-10T13:29:32.189Z,2.78
2023-01-10T13:30:37.871Z,2.75
2023-01-10T13:31:40.604Z,3.00
2023-01-10T13:32:42.170Z,2.83
2023-01-10T13:33:54.158Z,2.13
2023-01-10T13:35:13.306Z,2.85
2023-01-10T13:36:21.437Z,2.58
2023-01-10T13:37:26.759Z,2.40
2023-01-10T13:38:38.375Z,2.30
2023-01-10T13:39:45.953Z,2.13
2023-01-10T13:41:03.650Z,2.50
2023-01-10T13:42:46.618Z,1.83
2023-01-10T13:44:09.611Z,2.17
2023-01-10T13:45:30.481Z,3.08
2023-01-10T13:46:43.197Z,1.73
2023-01-10T13:48:17.508Z,2.20
2023-01-10T13:49:47.192Z,2.65
2023-01-10T13:50:50.412Z,2.42
2023-01-10T13:52:21.739Z,2.72
2023-01-10T13:53:44.358Z,2.50
2023-01-10T13:54:56.958Z,2.20
2023-01-10T13:55:59.499Z,2.30
2023-01-10T13:57:02.008Z,2.92
2023-01-10T13:58:05.426Z,2.20
2023-01-10T13:59:49.945Z,2.40
2023-01-10T14:01:11.640Z,2.50
2023-01-10T14:02:29.930Z,2.10
2023-01-10T14:03:46.829Z,2.53
2023-01-10T14:04:53.430Z,2.05
2023-01-10T14:05:55.061Z,2.42
2023-01-10T14:07:00.225Z,2.40
2023-01-10T14:08:02.949Z,2.20
2023-01-10T14:09:26.091Z,2.38
2023-01-10T14:10:31.236Z,2.47
2023-01-10T14:11:51.636Z,2.10
2023-01-10T14:12:58.170Z,1.95
2023-01-10T14:14:02.255Z,2.28
2023-01-10T14:15:21.594Z,2.13
2023-01-10T14:16:29.271Z,2.20
2023-01-10T14:17:34.116Z,1.95
2023-01-10T14:18:39.313Z,2.17
2023-01-10T14:19:43.319Z,1.60
2023-01-10T14:20:56.367Z,1.95
2023-01-10T14:22:06.902Z,1.80
2023-01-10T14:23:19.602Z,1.55
2023-01-10T14:24:25.831Z,1.90
2023-01-10T14:25:29.840Z,2.03
2023-01-10T14:26:43.046Z,2.10
2023-01-10T14:27:47.931Z,2.22
2023-01-10T14:28:55.882Z,2.00
2023-01-10T14:30:01.407Z,2.13
2023-01-10T14:31:09.229Z,2.83
2023-01-10T14:32:25.842Z,1.85
2023-01-10T14:33:32.928Z,1.77
2023-01-10T14:34:41.569Z,1.90
2023-01-10T14:35:46.725Z,1.90
2023-01-10T14:36:53.281Z,2.10
2023-01-10T14:38:00.414Z,1.60
2023-01-10T14:39:06.668Z,1.50
2023-01-10T14:40:20.160Z,1.75
2023-01-10T14:41:32.094Z,1.70
2023-01-10T14:42:36.943Z,1.50
2023-01-10T14:43:44.153Z,1.52
2023-01-10T14:44:52.136Z,1.08